Terminal Aerodrome Forecast
Issued by NWS Boston, MA

Home | Current Version | Previous Version | Text Only | Print | Product List | Glossary On
Versions: 1 2 3 4 5 6 7 8 9 10 11 12 13 14 15 16 17
000
FTUS41 KBOX 221720
TAFORH
TAF
KORH 221720Z 2218/2318 02012G24KT P6SM BKN015
     FM231400 01007G19KT P6SM BKN020
     FM231600 02007G17KT P6SM SCT025=

USA.gov is the U.S. government's official web portal to all federal, state and local government web resources and services.